Time;durP1;ratioP1;P1;durP2;ratioP2;P2;SDS_P1;SDS_P2;PMS_P1;PMS_P2;Temp;Humidity;BMP_temperature;BMP_pressure;BME280_temperature;BME280_humidity;BME280_pressure;Samples;Min_cycle;Max_cycle;Signal;HPM_P1;HPM_P2
2023/01/17 00:02:12;;;;;;;3.67;1.80;;;3.50;99.90;;;;;;4970083;28;20152;-63
2023/01/17 00:10:20;;;;;;;2.88;1.70;;;3.60;99.90;;;;;;4977108;28;20154;-63
2023/01/17 00:12:56;;;;;;;5.13;1.60;;;3.60;99.90;;;;;;4968941;28;20054;-63
2023/01/17 00:15:23;;;;;;;4.05;1.48;;;3.70;99.90;;;;;;4968345;28;20089;-63
2023/01/17 00:17:49;;;;;;;4.65;1.10;;;3.70;99.90;;;;;;4971267;28;20046;-63
2023/01/17 00:26:15;;;;;;;3.17;0.90;;;3.90;99.90;;;;;;4989767;28;20054;-63
2023/01/17 01:35:51;;;;;;;15.80;1.75;;;4.00;99.90;;;;;;4968425;28;20046;-63
2023/01/17 01:38:19;;;;;;;15.45;1.90;;;4.00;99.90;;;;;;4976654;28;20065;-63
2023/01/17 01:40:53;;;;;;;14.05;1.70;;;4.00;99.90;;;;;;4955075;28;20050;-63
2023/01/17 01:43:42;;;;;;;12.15;2.22;;;4.00;99.90;;;;;;4988412;28;20078;-63
2023/01/17 01:46:11;;;;;;;10.43;1.70;;;4.00;99.90;;;;;;4989461;28;20074;-63
2023/01/17 01:48:53;;;;;;;12.63;2.42;;;4.00;99.90;;;;;;4988193;28;20640;-63
2023/01/17 01:51:28;;;;;;;11.95;1.83;;;3.90;99.90;;;;;;4988123;28;20104;-63
2023/01/17 01:54:05;;;;;;;14.25;1.80;;;4.00;99.90;;;;;;4988627;28;20100;-63
2023/01/17 01:56:31;;;;;;;16.83;2.13;;;4.10;99.90;;;;;;4988834;28;20046;-63
2023/01/17 01:59:01;;;;;;;11.05;1.50;;;4.10;99.90;;;;;;4987204;28;20108;-63
2023/01/17 02:01:28;;;;;;;12.73;1.43;;;4.10;99.90;;;;;;4987570;28;20034;-63
2023/01/17 02:03:53;;;;;;;13.38;2.30;;;4.10;99.90;;;;;;4979475;28;20294;-63
2023/01/17 02:06:33;;;;;;;9.52;1.35;;;4.10;99.90;;;;;;4969235;28;20084;-63
2023/01/17 02:09:04;;;;;;;14.75;1.60;;;4.00;99.90;;;;;;4972204;28;20051;-63
2023/01/17 02:11:32;;;;;;;9.85;1.42;;;4.00;99.90;;;;;;4986525;28;20568;-63
2023/01/17 02:13:58;;;;;;;12.10;1.73;;;4.00;99.90;;;;;;4987093;28;20042;-63
2023/01/17 02:16:35;;;;;;;8.35;1.20;;;4.00;99.90;;;;;;4987690;28;20035;-63
2023/01/17 02:19:04;;;;;;;8.10;2.17;;;4.00;99.90;;;;;;4987623;28;20496;-63
2023/01/17 02:22:11;;;;;;;18.17;7.95;;;4.00;99.90;;;;;;4983509;28;20455;-63
2023/01/17 02:25:18;;;;;;;8.93;2.10;;;3.90;99.90;;;;;;4986707;28;20058;-63
2023/01/17 02:28:20;;;;;;;6.40;0.90;;;3.80;99.90;;;;;;4958075;28;20476;-63
2023/01/17 02:30:50;;;;;;;7.78;0.75;;;3.70;99.90;;;;;;4967222;28;20089;-63
2023/01/17 02:33:24;;;;;;;;;;;3.60;99.90;;;;;;4982673;28;20137;-63
2023/01/17 02:36:16;;;;;;;10.20;1.65;;;3.60;99.90;;;;;;4967853;28;20069;-63
2023/01/17 02:39:07;;;;;;;5.82;1.25;;;3.60;99.90;;;;;;4985184;28;20050;-63
2023/01/17 02:41:35;;;;;;;;;;;3.70;99.90;;;;;;4967180;28;20043;-63
2023/01/17 02:44:01;;;;;;;17.77;1.73;;;3.70;99.90;;;;;;4976396;28;19933;-63
2023/01/17 02:46:29;;;;;;;17.80;1.85;;;3.80;99.90;;;;;;4964282;28;20096;-63
2023/01/17 02:48:56;;;;;;;21.17;2.38;;;3.80;99.90;;;;;;4979397;28;20050;-63
2023/01/17 02:51:58;;;;;;;12.55;1.55;;;3.90;99.90;;;;;;4950968;28;20449;-63
2023/01/17 02:54:31;;;;;;;20.00;4.68;;;4.00;99.90;;;;;;4975532;28;20055;-63
2023/01/17 02:57:34;;;;;;;15.55;1.83;;;3.90;99.90;;;;;;4967629;28;20569;-63
2023/01/17 03:00:26;;;;;;;16.50;2.30;;;4.00;99.90;;;;;;4970374;28;20423;-63
2023/01/17 03:02:57;;;;;;;15.77;1.88;;;4.00;99.90;;;;;;4974419;28;20129;-63
2023/01/17 03:05:48;;;;;;;23.75;2.42;;;4.10;99.90;;;;;;4970585;28;20069;-63
2023/01/17 03:08:15;;;;;;;20.17;2.13;;;4.10;99.90;;;;;;4981265;28;20054;-63
2023/01/17 03:10:41;;;;;;;18.20;2.55;;;4.10;99.90;;;;;;4969780;28;20536;-63
2023/01/17 03:13:07;;;;;;;15.15;3.38;;;4.10;99.90;;;;;;4987142;28;20054;-63
2023/01/17 03:15:33;;;;;;;20.27;4.50;;;4.10;99.90;;;;;;4987224;28;20120;-63
2023/01/17 03:18:03;;;;;;;24.25;3.30;;;4.10;99.90;;;;;;4987359;28;20053;-63
2023/01/17 03:20:30;;;;;;;16.73;4.75;;;4.10;99.90;;;;;;4972992;28;20105;-63
2023/01/17 03:22:55;;;;;;;10.82;1.77;;;4.10;99.90;;;;;;4987238;28;20117;-63
2023/01/17 03:25:21;;;;;;;11.05;1.83;;;4.30;99.90;;;;;;4977820;28;20676;-63
2023/01/17 03:27:47;;;;;;;10.02;2.92;;;4.30;99.90;;;;;;4991075;28;20105;-63
2023/01/17 03:30:13;;;;;;;11.30;3.38;;;4.30;99.90;;;;;;4974084;28;20056;-63
2023/01/17 03:32:38;;;;;;;13.02;2.05;;;4.30;99.90;;;;;;4990762;28;20042;-63
2023/01/17 03:35:05;;;;;;;14.60;3.20;;;4.30;99.90;;;;;;4991438;28;20555;-63
2023/01/17 03:37:30;;;;;;;14.52;2.60;;;4.30;99.90;;;;;;4973523;28;20084;-63
2023/01/17 03:39:57;;;;;;;16.20;5.50;;;4.30;99.90;;;;;;4991186;28;20482;-63
2023/01/17 03:42:22;;;;;;;15.80;3.22;;;4.20;99.90;;;;;;4978919;28;20068;-63
2023/01/17 03:44:48;;;;;;;13.35;3.03;;;4.20;99.90;;;;;;4990717;28;20129;-63
2023/01/17 03:47:14;;;;;;;11.60;2.45;;;4.20;99.90;;;;;;4991482;28;20122;-63
2023/01/17 03:49:40;;;;;;;11.63;3.22;;;4.30;99.90;;;;;;4973026;28;20050;-63
2023/01/17 03:52:06;;;;;;;14.50;2.55;;;4.30;99.90;;;;;;4990759;28;20042;-63
2023/01/17 03:54:32;;;;;;;15.25;3.08;;;4.40;99.90;;;;;;4982581;28;20400;-63
2023/01/17 03:56:58;;;;;;;14.52;2.13;;;4.30;99.90;;;;;;4969625;28;20039;-63
2023/01/17 03:59:24;;;;;;;7.68;1.58;;;4.30;99.90;;;;;;4983827;28;20121;-63
2023/01/17 04:01:49;;;;;;;14.10;2.60;;;4.30;99.90;;;;;;4989466;28;20157;-63
2023/01/17 04:04:15;;;;;;;14.40;2.03;;;4.20;99.90;;;;;;4990330;28;20070;-62
2023/01/17 04:06:41;;;;;;;8.30;1.45;;;4.10;99.90;;;;;;4989994;28;20477;-63
2023/01/17 04:09:07;;;;;;;6.97;1.85;;;4.00;99.90;;;;;;4987850;28;20049;-63
2023/01/17 04:11:32;;;;;;;11.75;2.00;;;3.90;99.90;;;;;;4979177;28;20082;-63
2023/01/17 04:13:58;;;;;;;11.77;2.22;;;3.90;99.90;;;;;;4989463;28;20130;-63
2023/01/17 04:16:28;;;;;;;13.65;2.55;;;3.80;99.90;;;;;;4990028;28;20053;-63
2023/01/17 04:18:55;;;;;;;9.45;2.20;;;3.80;99.90;;;;;;4989281;28;20170;-63
2023/01/17 04:21:21;;;;;;;6.53;1.58;;;3.80;99.90;;;;;;4990254;28;20113;-63
2023/01/17 04:23:47;;;;;;;10.48;2.35;;;3.90;99.90;;;;;;4989164;28;20046;-63
2023/01/17 04:26:13;;;;;;;6.40;1.00;;;3.80;99.90;;;;;;4990110;28;20096;-63
2023/01/17 04:28:38;;;;;;;9.55;1.33;;;3.70;99.90;;;;;;4989178;28;20042;-63
2023/01/17 04:31:04;;;;;;;4.32;1.13;;;3.60;99.90;;;;;;4988539;28;20054;-63
2023/01/17 04:33:30;;;;;;;11.75;1.48;;;3.60;99.90;;;;;;4989619;28;20485;-63
2023/01/17 04:35:56;;;;;;;10.48;1.27;;;3.50;99.90;;;;;;4989368;28;20057;-63
2023/01/17 04:38:22;;;;;;;12.35;1.60;;;3.50;99.90;;;;;;4988405;28;20062;-63
2023/01/17 04:40:49;;;;;;;11.10;3.03;;;3.50;99.90;;;;;;4989227;28;20145;-63
2023/01/17 04:43:15;;;;;;;9.90;1.88;;;3.50;99.90;;;;;;4985954;28;20052;-63
2023/01/17 04:45:42;;;;;;;14.77;2.53;;;3.50;99.90;;;;;;4971862;28;20058;-63
2023/01/17 04:48:11;;;;;;;12.10;2.58;;;3.50;99.90;;;;;;4972027;28;20097;-63
2023/01/17 04:50:38;;;;;;;13.20;2.15;;;3.60;99.90;;;;;;4989714;28;20449;-63
2023/01/17 04:53:04;;;;;;;16.52;2.28;;;3.60;99.90;;;;;;4988681;28;20042;-63
2023/01/17 04:55:29;;;;;;;11.02;2.08;;;3.70;99.90;;;;;;4989657;28;20049;-63
2023/01/17 04:57:55;;;;;;;20.30;5.25;;;3.60;99.90;;;;;;4989108;28;20521;-63
2023/01/17 05:00:21;;;;;;;17.55;4.20;;;3.40;99.90;;;;;;4989611;28;20046;-63
2023/01/17 05:02:47;;;;;;;14.52;2.78;;;3.30;99.90;;;;;;4988761;28;20421;-63
2023/01/17 05:05:13;;;;;;;15.55;2.20;;;3.30;99.90;;;;;;4971747;28;20460;-63
2023/01/17 05:07:38;;;;;;;11.75;1.67;;;3.30;99.90;;;;;;4968230;28;20042;-63
2023/01/17 05:10:05;;;;;;;11.40;1.33;;;3.30;99.90;;;;;;4970966;28;20085;-63
2023/01/17 05:12:31;;;;;;;9.23;1.67;;;3.30;99.90;;;;;;4989126;28;20446;-63
2023/01/17 05:14:56;;;;;;;12.50;1.80;;;3.40;99.90;;;;;;4970985;28;20073;-63
2023/01/17 05:17:22;;;;;;;12.32;1.90;;;3.40;99.90;;;;;;4988691;28;20042;-63
2023/01/17 05:19:48;;;;;;;7.35;1.23;;;3.30;99.90;;;;;;4988299;28;20399;-63
2023/01/17 05:22:14;;;;;;;8.65;1.90;;;3.20;99.90;;;;;;4989107;28;20042;-63
2023/01/17 05:24:41;;;;;;;8.13;1.48;;;3.20;99.90;;;;;;4988627;28;20604;-63
2023/01/17 05:27:07;;;;;;;11.07;1.67;;;3.20;99.90;;;;;;4988620;28;20042;-63
2023/01/17 05:29:33;;;;;;;9.38;1.77;;;3.20;99.90;;;;;;4988685;28;20409;-63
2023/01/17 05:31:59;;;;;;;5.07;1.35;;;3.20;99.90;;;;;;4988139;28;20043;-63
2023/01/17 05:34:25;;;;;;;7.82;1.80;;;3.20;99.90;;;;;;4987084;28;20093;-63
2023/01/17 05:36:51;;;;;;;8.57;1.58;;;3.20;99.90;;;;;;4988147;28;20042;-63
2023/01/17 05:39:17;;;;;;;10.63;2.22;;;3.20;99.90;;;;;;4988528;28;20046;-63
2023/01/17 05:41:43;;;;;;;8.95;2.75;;;3.20;99.90;;;;;;4988138;28;20500;-63
2023/01/17 05:44:09;;;;;;;16.98;2.50;;;3.20;99.90;;;;;;4980180;28;20053;-63
2023/01/17 05:46:34;;;;;;;9.43;1.70;;;3.20;99.90;;;;;;4981699;28;20508;-63
2023/01/17 05:49:00;;;;;;;14.30;4.32;;;3.20;99.90;;;;;;4970057;28;20124;-63
2023/01/17 05:51:26;;;;;;;14.60;4.97;;;3.10;99.90;;;;;;4969982;28;20109;-63
2023/01/17 05:53:52;;;;;;;11.00;4.50;;;3.00;99.90;;;;;;4971164;28;20034;-63
2023/01/17 05:56:18;;;;;;;17.00;4.45;;;3.00;99.90;;;;;;4981214;28;20117;-63
2023/01/17 05:58:43;;;;;;;11.25;4.03;;;3.00;99.90;;;;;;4988241;28;20049;-63
2023/01/17 06:01:09;;;;;;;13.55;3.55;;;2.90;99.90;;;;;;4970318;28;20057;-63
2023/01/17 06:03:35;;;;;;;9.77;1.50;;;2.80;99.90;;;;;;4987870;28;20049;-63
2023/01/17 06:06:01;;;;;;;17.58;4.18;;;2.70;99.90;;;;;;4988018;28;20096;-63
2023/01/17 06:08:26;;;;;;;21.42;5.85;;;2.70;99.90;;;;;;4970549;28;20054;-63
2023/01/17 06:10:52;;;;;;;2.38;1.55;;;2.80;99.90;;;;;;4973648;28;20532;-64
2023/01/17 06:13:20;;;;;;;0.77;0.28;;;2.80;99.90;;;;;;4987643;28;20050;-63
2023/01/17 06:15:47;;;;;;;4.13;0.30;;;2.90;99.90;;;;;;4968943;28;20057;-63
2023/01/17 06:18:15;;;;;;;10.52;0.93;;;2.80;99.90;;;;;;4987970;28;20042;-63
2023/01/17 06:20:41;;;;;;;6.20;0.95;;;2.80;99.90;;;;;;4988071;28;20046;-63
2023/01/17 06:23:10;;;;;;;2.95;1.02;;;2.80;99.90;;;;;;4988240;28;20046;-63
2023/01/17 06:25:42;;;;;;;3.50;0.68;;;2.80;99.90;;;;;;4970857;28;20065;-63
2023/01/17 06:28:09;;;;;;;3.60;0.75;;;2.80;99.90;;;;;;4985394;28;20050;-63
2023/01/17 06:30:36;;;;;;;3.55;0.43;;;2.80;99.90;;;;;;4986934;28;20042;-63
2023/01/17 06:33:02;;;;;;;0.47;0.20;;;2.80;99.90;;;;;;4983342;28;20054;-63
2023/01/17 06:35:28;;;;;;;1.85;0.25;;;2.70;99.90;;;;;;4986941;28;20401;-63
2023/01/17 06:37:56;;;;;;;5.10;0.60;;;2.60;99.90;;;;;;4985647;28;20042;-63
2023/01/17 06:40:24;;;;;;;10.07;0.60;;;2.50;99.90;;;;;;4969789;28;20130;-64
2023/01/17 06:42:50;;;;;;;2.63;0.40;;;2.50;99.90;;;;;;4987341;28;20045;-64
2023/01/17 06:45:16;;;;;;;4.03;0.40;;;2.40;99.90;;;;;;4987689;28;20046;-63
2023/01/17 06:47:43;;;;;;;4.38;0.30;;;2.40;99.90;;;;;;4988145;28;20460;-64
2023/01/17 06:50:12;;;;;;;4.70;1.58;;;2.40;99.90;;;;;;4987357;28;20034;-63
2023/01/17 06:52:39;;;;;;;6.47;1.00;;;2.40;99.90;;;;;;4987629;28;20500;-63
2023/01/17 06:55:06;;;;;;;11.32;0.90;;;2.40;99.90;;;;;;4987004;28;20034;-64
2023/01/17 06:57:32;;;;;;;7.90;0.80;;;2.20;99.90;;;;;;4987824;28;20054;-63
2023/01/17 07:00:00;;;;;;;6.93;0.85;;;2.20;99.90;;;;;;4987105;28;20444;-63
2023/01/17 07:02:25;;;;;;;6.00;0.70;;;2.20;99.90;;;;;;4987389;28;20042;-63
2023/01/17 07:04:51;;;;;;;8.55;1.08;;;2.10;99.90;;;;;;4987026;28;20129;-63
2023/01/17 07:07:17;;;;;;;5.03;0.68;;;2.00;99.90;;;;;;4969360;28;20056;-63
2023/01/17 07:09:43;;;;;;;6.00;1.38;;;2.00;99.90;;;;;;4978724;28;20054;-64
2023/01/17 07:12:09;;;;;;;5.05;0.65;;;1.90;99.90;;;;;;4981174;28;20573;-63
2023/01/17 07:14:34;;;;;;;8.55;1.02;;;1.80;99.90;;;;;;4987268;28;20042;-63
2023/01/17 07:17:00;;;;;;;5.80;0.85;;;1.80;99.90;;;;;;4987508;28;20046;-63
2023/01/17 07:19:26;;;;;;;2.45;0.77;;;1.70;99.90;;;;;;4987339;28;20089;-63
2023/01/17 07:21:53;;;;;;;2.00;0.52;;;1.70;99.90;;;;;;4987416;28;20140;-63
2023/01/17 07:24:20;;;;;;;15.15;0.80;;;1.60;99.90;;;;;;4987511;28;20085;-63
2023/01/17 07:26:49;;;;;;;5.93;0.60;;;1.60;99.90;;;;;;4986902;28;20051;-63
2023/01/17 07:29:15;;;;;;;5.25;0.32;;;1.60;99.90;;;;;;4969692;28;20121;-63
2023/01/17 07:31:42;;;;;;;9.52;0.90;;;1.60;99.90;;;;;;4987402;28;20042;-63
2023/01/17 07:34:08;;;;;;;2.17;0.45;;;1.60;99.90;;;;;;4987054;28;20062;-63
2023/01/17 07:36:33;;;;;;;3.42;0.90;;;1.50;99.90;;;;;;4987421;28;20413;-64
2023/01/17 07:39:00;;;;;;;9.65;0.90;;;1.60;99.90;;;;;;4969713;28;20152;-63
2023/01/17 07:41:26;;;;;;;8.07;0.75;;;1.60;99.90;;;;;;4986551;28;20058;-63
2023/01/17 07:43:52;;;;;;;7.95;0.77;;;1.60;99.90;;;;;;4987517;28;20405;-63
2023/01/17 07:46:18;;;;;;;8.82;0.85;;;1.60;99.90;;;;;;4962780;28;20055;-63
2023/01/17 07:48:44;;;;;;;9.05;1.20;;;1.50;99.90;;;;;;4987268;28;20053;-63
2023/01/17 07:51:11;;;;;;;9.20;1.10;;;1.60;99.90;;;;;;4987180;28;20053;-63
2023/01/17 07:53:36;;;;;;;5.40;0.68;;;1.50;99.90;;;;;;4968682;28;20049;-63
2023/01/17 07:56:04;;;;;;;3.67;0.50;;;1.60;99.90;;;;;;4985720;28;20042;-63
2023/01/17 07:58:31;;;;;;;3.50;0.40;;;1.60;99.90;;;;;;4987172;28;20493;-63
2023/01/17 08:01:06;;;;;;;6.03;0.55;;;1.60;99.90;;;;;;4986939;28;20121;-63
2023/01/17 08:03:38;;;;;;;8.93;0.90;;;1.60;99.90;;;;;;4969115;28;20544;-63
2023/01/17 08:06:06;;;;;;;10.50;0.70;;;1.70;99.90;;;;;;4986775;28;20543;-63
2023/01/17 08:08:31;;;;;;;3.97;0.52;;;1.70;99.90;;;;;;4967601;28;20050;-63
2023/01/17 08:10:57;;;;;;;0.43;0.15;;;1.80;99.90;;;;;;4976845;28;20097;-63
2023/01/17 08:13:23;;;;;;;3.38;0.35;;;1.90;99.90;;;;;;4988528;28;20050;-63
2023/01/17 08:15:50;;;;;;;4.95;0.30;;;2.00;99.90;;;;;;4990340;28;20030;-63
2023/01/17 08:18:17;;;;;;;2.53;0.50;;;2.20;99.90;;;;;;4956702;28;20050;-63
2023/01/17 08:20:44;;;;;;;6.75;0.73;;;2.40;99.90;;;;;;4989645;28;20370;-63
2023/01/17 08:23:10;;;;;;;3.67;0.88;;;2.60;99.90;;;;;;4987371;28;20046;-63
2023/01/17 08:25:37;;;;;;;5.40;1.17;;;2.70;99.90;;;;;;4988410;28;20108;-63
2023/01/17 08:28:04;;;;;;;3.13;0.57;;;2.90;99.90;;;;;;4963192;28;20093;-62
2023/01/17 08:30:29;;;;;;;1.50;0.50;;;2.90;99.90;;;;;;4977936;28;20141;-63
2023/01/17 08:32:55;;;;;;;1.63;0.30;;;2.90;99.90;;;;;;4986895;28;20487;-63
2023/01/17 08:35:22;;;;;;;1.75;0.28;;;2.90;99.90;;;;;;4989007;28;20054;-63
2023/01/17 08:37:52;;;;;;;3.30;0.57;;;2.90;99.90;;;;;;4986317;28;20453;-63
2023/01/17 08:40:18;;;;;;;1.35;0.30;;;3.00;99.90;;;;;;4970218;28;20038;-63
2023/01/17 08:42:53;;;;;;;2.75;0.22;;;3.00;99.90;;;;;;4989550;28;20038;-63
2023/01/17 08:45:20;;;;;;;3.58;0.85;;;3.10;99.90;;;;;;4983858;28;20429;-62
2023/01/17 08:47:45;;;;;;;5.93;0.90;;;3.20;99.90;;;;;;4974788;28;20493;-63
2023/01/17 08:50:11;;;;;;;7.80;1.77;;;3.30;99.90;;;;;;4990049;28;20038;-62
2023/01/17 08:52:39;;;;;;;6.90;1.83;;;3.50;99.90;;;;;;4988387;28;20108;-63
2023/01/17 08:55:05;;;;;;;8.55;1.77;;;3.60;99.90;;;;;;4988880;28;20042;-63
2023/01/17 08:57:31;;;;;;;4.38;1.02;;;3.60;99.90;;;;;;4988720;28;20501;-63
2023/01/17 08:59:58;;;;;;;4.03;1.23;;;3.70;99.90;;;;;;4989572;28;20042;-63
2023/01/17 09:02:23;;;;;;;4.43;0.60;;;3.70;99.90;;;;;;4989039;28;20050;-63
2023/01/17 09:04:50;;;;;;;4.35;1.08;;;3.60;99.90;;;;;;4990000;28;20496;-63
2023/01/17 09:07:18;;;;;;;1.67;0.32;;;3.60;99.90;;;;;;4989517;28;20050;-63
2023/01/17 09:09:45;;;;;;;4.00;0.95;;;3.60;99.90;;;;;;4982091;28;20073;-63
2023/01/17 09:12:11;;;;;;;3.83;0.38;;;3.60;99.90;;;;;;4966390;28;20407;-63
2023/01/17 09:14:37;;;;;;;4.85;0.30;;;3.50;99.90;;;;;;4989265;28;20130;-63
2023/01/17 09:17:05;;;;;;;4.38;0.98;;;3.60;99.90;;;;;;4989356;28;20121;-63
2023/01/17 09:19:31;;;;;;;2.85;0.20;;;3.60;99.90;;;;;;4988517;28;20055;-63
2023/01/17 09:21:57;;;;;;;0.70;0.28;;;3.60;99.90;;;;;;4987975;28;20061;-63
2023/01/17 09:24:23;;;;;;;5.18;0.32;;;3.60;99.90;;;;;;4969980;28;20499;-63
2023/01/17 09:26:49;;;;;;;0.52;0.25;;;3.60;99.90;;;;;;4988101;28;20122;-63
2023/01/17 09:29:16;;;;;;;7.53;0.60;;;3.60;99.90;;;;;;4964497;28;20125;-63
2023/01/17 09:31:46;;;;;;;5.70;0.88;;;3.60;99.90;;;;;;4987450;28;20480;-63
2023/01/17 09:34:13;;;;;;;1.83;0.40;;;3.70;99.90;;;;;;4982264;28;20409;-63
2023/01/17 09:36:40;;;;;;;2.00;0.32;;;3.80;99.90;;;;;;4981531;28;20034;-63
2023/01/17 09:39:07;;;;;;;2.63;0.57;;;3.90;99.90;;;;;;4961535;28;20088;-63
2023/01/17 09:41:35;;;;;;;1.13;0.30;;;4.00;99.90;;;;;;4962392;28;20070;-63
2023/01/17 09:44:27;;;;;;;6.30;0.43;;;4.20;99.90;;;;;;4978931;28;20053;-63
2023/01/17 09:47:01;;;;;;;0.50;0.40;;;4.20;99.90;;;;;;4975665;28;20378;-63
2023/01/17 09:49:42;;;;;;;3.85;0.73;;;4.20;99.90;;;;;;4987341;28;20891;-63
2023/01/17 09:52:10;;;;;;;;;;;4.10;99.90;;;;;;4970203;28;20057;-63
2023/01/17 09:54:41;;;;;;;2.72;0.82;;;4.00;99.90;;;;;;4986133;28;20024;-63
2023/01/17 09:57:28;;;;;;;11.80;0.70;;;4.00;99.90;;;;;;4987041;28;20061;-63
2023/01/17 10:00:33;;;;;;;4.43;0.60;;;4.00;99.90;;;;;;4987769;28;20050;-63
2023/01/17 10:03:10;;;;;;;4.38;0.70;;;4.00;99.90;;;;;;4986257;28;20125;-63
2023/01/17 10:05:48;;;;;;;4.03;0.70;;;4.00;99.90;;;;;;4986768;28;20053;-63
2023/01/17 10:08:18;;;;;;;9.27;0.90;;;4.00;99.90;;;;;;4987981;28;20042;-63
2023/01/17 10:10:47;;;;;;;2.17;0.33;;;4.00;99.90;;;;;;4972948;28;20051;-63
2023/01/17 10:13:25;;;;;;;6.88;1.05;;;4.00;99.90;;;;;;4974639;28;20313;-63
2023/01/17 10:15:59;;;;;;;8.13;0.82;;;3.90;99.90;;;;;;4986974;28;20523;-63
2023/01/17 10:19:00;;;;;;;3.50;0.90;;;4.00;99.90;;;;;;4987011;28;20050;-63
2023/01/17 10:21:41;;;;;;;3.45;1.17;;;4.00;99.90;;;;;;4971594;28;20078;-63
2023/01/17 10:24:33;;;;;;;3.60;0.65;;;4.10;99.90;;;;;;4987228;28;20082;-63
2023/01/17 10:27:01;;;;;;;0.15;0.10;;;4.10;99.90;;;;;;4986037;28;20732;-63
2023/01/17 10:29:32;;;;;;;1.58;0.30;;;4.00;99.90;;;;;;4973020;28;20044;-63
2023/01/17 10:32:01;;;;;;;0.15;0.10;;;3.90;99.90;;;;;;4975971;28;21563;-63
2023/01/17 10:34:40;;;;;;;0.73;0.30;;;3.90;99.90;;;;;;4974225;28;20042;-63
2023/01/17 10:37:26;;;;;;;1.05;0.13;;;3.90;99.90;;;;;;4985956;28;20050;-63
2023/01/17 10:39:56;;;;;;;0.73;0.10;;;3.90;99.90;;;;;;4971818;28;20058;-63
2023/01/17 10:42:25;;;;;;;;;;;4.00;99.90;;;;;;4987741;28;20173;-64
2023/01/17 10:45:15;;;;;;;0.75;0.22;;;4.00;99.90;;;;;;4985197;28;20016;-63
2023/01/17 10:47:49;;;;;;;0.00;0.00;;;4.00;99.90;;;;;;4985374;28;20481;-64
2023/01/17 10:50:17;;;;;;;0.65;0.30;;;4.00;99.90;;;;;;4985053;28;20775;-64
2023/01/17 10:53:09;;;;;;;1.75;0.35;;;4.00;99.90;;;;;;4968248;28;20058;-64
2023/01/17 10:55:52;;;;;;;1.08;0.10;;;3.90;99.90;;;;;;4974329;28;20149;-64
2023/01/17 10:58:19;;;;;;;0.38;0.20;;;3.80;99.90;;;;;;4985912;28;20054;-63
2023/01/17 11:01:05;;;;;;;1.83;0.32;;;3.80;99.90;;;;;;4986500;28;20038;-63
2023/01/17 11:03:32;;;;;;;5.60;0.38;;;3.80;99.90;;;;;;4983254;28;20126;-63
2023/01/17 11:06:18;;;;;;;0.00;0.00;;;3.80;99.90;;;;;;4985983;28;20097;-63
2023/01/17 11:08:53;;;;;;;0.73;0.20;;;3.80;99.90;;;;;;4936462;28;20038;-64
2023/01/17 11:11:23;;;;;;;0.30;0.08;;;3.70;99.90;;;;;;4986174;28;20501;-63
2023/01/17 11:13:53;;;;;;;2.65;0.20;;;3.70;99.90;;;;;;4986052;28;20046;-63
2023/01/17 11:16:24;;;;;;;1.98;0.20;;;3.70;99.90;;;;;;4986616;28;20042;-63
2023/01/17 11:19:16;;;;;;;0.70;0.10;;;3.80;99.90;;;;;;4985438;28;20089;-63
2023/01/17 11:21:56;;;;;;;0.38;0.10;;;3.80;99.90;;;;;;4986420;28;20054;-63
2023/01/17 11:24:39;;;;;;;3.88;0.40;;;3.90;99.90;;;;;;4966631;28;20062;-63
2023/01/17 11:27:07;;;;;;;0.45;0.32;;;3.90;99.90;;;;;;4983847;28;20497;-63
2023/01/17 11:29:37;;;;;;;0.03;0.00;;;3.90;99.90;;;;;;4985557;28;20089;-64
2023/01/17 11:32:30;;;;;;;0.45;0.15;;;3.80;99.90;;;;;;4976740;28;20537;-63
2023/01/17 11:35:06;;;;;;;0.00;0.00;;;3.70;99.90;;;;;;4981346;28;20402;-64
2023/01/17 11:37:33;;;;;;;1.88;0.13;;;3.70;99.90;;;;;;4970956;28;20129;-63
2023/01/17 11:40:39;;;;;;;1.65;0.35;;;3.70;99.90;;;;;;4968308;28;20490;-63
2023/01/17 11:43:26;;;;;;;2.60;0.17;;;3.80;99.90;;;;;;4947747;28;20058;-63
2023/01/17 11:46:03;;;;;;;0.90;0.10;;;3.90;99.90;;;;;;4966773;28;20042;-63
2023/01/17 11:48:37;;;;;;;3.95;0.35;;;4.00;99.90;;;;;;4988286;28;20056;-64
2023/01/17 11:51:16;;;;;;;2.65;0.40;;;4.10;99.90;;;;;;4988908;28;20096;-63
2023/01/17 11:53:46;;;;;;;3.17;0.43;;;4.20;99.90;;;;;;4988509;28;20038;-63
2023/01/17 11:56:34;;;;;;;5.10;0.70;;;4.30;99.90;;;;;;4989961;28;20084;-63
2023/01/17 11:59:17;;;;;;;1.25;0.52;;;4.30;99.90;;;;;;4971306;28;20042;-63
2023/01/17 12:02:20;;;;;;;1.95;0.57;;;4.40;99.90;;;;;;4971515;28;20045;-64
2023/01/17 12:05:17;;;;;;;3.92;0.98;;;4.40;99.90;;;;;;4989753;28;20046;-63
2023/01/17 12:08:01;;;;;;;3.88;0.98;;;4.50;99.90;;;;;;4915860;28;20101;-63
2023/01/17 12:10:42;;;;;;;7.25;1.20;;;4.50;99.90;;;;;;4981233;28;20054;-63
2023/01/17 12:16:31;;;;;;;5.88;0.82;;;4.50;99.90;;;;;;4969335;28;20061;-63
2023/01/17 12:19:31;;;;;;;0.98;0.55;;;4.50;99.90;;;;;;4988563;28;20069;-63
2023/01/17 12:22:17;;;;;;;0.73;0.35;;;4.60;99.90;;;;;;4954084;28;20050;-64
2023/01/17 12:25:17;;;;;;;2.80;1.10;;;4.60;99.90;;;;;;4986278;28;20046;-63
2023/01/17 12:28:11;;;;;;;3.78;0.60;;;4.70;99.90;;;;;;4988685;28;20198;-63
2023/01/17 12:31:18;;;;;;;7.93;1.25;;;4.70;99.90;;;;;;4989359;28;20448;-63
2023/01/17 12:33:54;;;;;;;2.85;0.43;;;4.80;99.90;;;;;;4958041;28;20113;-63
2023/01/17 12:36:54;;;;;;;2.55;0.73;;;4.90;99.90;;;;;;4988864;28;20047;-63
2023/01/17 12:39:25;;;;;;;3.95;1.35;;;4.90;99.90;;;;;;4972046;28;20050;-63
2023/01/17 12:42:12;;;;;;;1.55;1.35;;;4.90;99.90;;;;;;4987830;28;20532;-63
2023/01/17 12:44:46;;;;;;;5.68;1.15;;;5.00;99.90;;;;;;4989028;28;20058;-63
2023/01/17 12:47:15;;;;;;;4.00;1.15;;;5.00;99.90;;;;;;4966734;28;20050;-63
2023/01/17 12:49:47;;;;;;;7.60;0.90;;;5.00;99.90;;;;;;4987317;28;20054;-63
2023/01/17 12:52:57;;;;;;;3.40;1.02;;;5.00;99.90;;;;;;4987391;28;20088;-63
2023/01/17 12:55:39;;;;;;;3.47;0.83;;;5.10;99.90;;;;;;4962524;28;20074;-63
2023/01/17 12:58:17;;;;;;;3.92;0.80;;;5.10;99.90;;;;;;4987682;28;20046;-63
2023/01/17 13:00:49;;;;;;;6.45;0.82;;;5.10;99.90;;;;;;4987598;28;20050;-63
2023/01/17 13:03:26;;;;;;;6.15;0.95;;;5.10;99.90;;;;;;4984413;28;20509;-63
2023/01/17 13:05:54;;;;;;;3.72;0.70;;;5.20;99.90;;;;;;4966845;28;20105;-63
2023/01/17 13:08:27;;;;;;;1.33;0.40;;;5.20;99.90;;;;;;4985789;28;20109;-63
2023/01/17 13:11:09;;;;;;;2.65;0.60;;;5.10;99.80;;;;;;4978283;28;20409;-63
2023/01/17 13:13:36;;;;;;;10.18;1.17;;;5.20;99.90;;;;;;4978684;28;20877;-63
2023/01/17 13:16:16;;;;;;;2.22;0.43;;;5.20;99.90;;;;;;4954923;28;20061;-63
2023/01/17 13:18:46;;;;;;;;;;;5.30;98.30;;;;;;4976814;28;20055;-63
2023/01/17 13:21:28;;;;;;;4.20;0.60;;;5.30;95.80;;;;;;4971204;28;20320;-63
2023/01/17 13:24:05;;;;;;;2.20;0.45;;;5.20;96.90;;;;;;4979797;28;20054;-63
2023/01/17 13:26:45;;;;;;;5.00;0.85;;;5.20;96.50;;;;;;4987142;28;20058;-63
2023/01/17 13:30:04;;;;;;;3.20;0.80;;;5.20;99.70;;;;;;4987241;28;20483;-63
2023/01/17 13:33:00;;;;;;;9.15;0.80;;;5.10;99.90;;;;;;4888615;29;20318;-63
2023/01/17 13:35:58;;;;;;;6.80;0.77;;;5.20;99.90;;;;;;4986630;28;20058;-63
2023/01/17 13:39:03;;;;;;;3.20;0.65;;;5.40;99.90;;;;;;4977386;28;20046;-63
2023/01/17 13:42:06;;;;;;;4.30;0.45;;;5.60;99.90;;;;;;4984240;28;20049;-63
2023/01/17 13:44:36;;;;;;;7.28;0.60;;;5.70;98.50;;;;;;4987465;28;20401;-63
2023/01/17 13:47:26;;;;;;;4.32;0.63;;;5.90;96.30;;;;;;4972142;28;20086;-63
2023/01/17 13:49:55;;;;;;;3.47;0.45;;;6.00;94.60;;;;;;4985402;28;20239;-63
2023/01/17 13:52:23;;;;;;;1.60;0.52;;;6.10;85.90;;;;;;4967437;28;20126;-63
2023/01/17 13:55:01;;;;;;;1.92;0.47;;;6.10;88.50;;;;;;4978037;28;20516;-63
2023/01/17 13:57:31;;;;;;;7.28;0.80;;;6.10;85.50;;;;;;4986874;28;20047;-63
2023/01/17 13:59:59;;;;;;;;;;;6.10;87.30;;;;;;4969881;28;20393;-63
2023/01/17 14:02:32;;;;;;;4.05;0.80;;;6.00;75.30;;;;;;4987106;28;20389;-63
2023/01/17 14:05:37;;;;;;;7.07;0.88;;;6.00;81.00;;;;;;4969090;28;20049;-63
2023/01/17 14:08:12;;;;;;;2.08;0.50;;;6.00;78.40;;;;;;4956044;28;20101;-63
2023/01/17 14:10:48;;;;;;;3.60;2.03;;;5.90;87.00;;;;;;4972669;28;20050;-63
2023/01/17 14:13:38;;;;;;;4.68;0.82;;;5.90;76.40;;;;;;4986696;28;20097;-63
2023/01/17 14:16:26;;;;;;;5.43;0.57;;;5.80;70.90;;;;;;4986421;28;20046;-62
2023/01/17 14:18:54;;;;;;;7.15;2.67;;;5.70;78.50;;;;;;4980403;28;20050;-64
2023/01/17 14:21:27;;;;;;;2.22;0.80;;;5.70;82.30;;;;;;4986285;28;20058;-63
2023/01/17 14:23:57;;;;;;;6.50;1.25;;;5.60;79.70;;;;;;4979484;28;20045;-63
2023/01/17 14:26:31;;;;;;;7.73;1.07;;;5.50;82.50;;;;;;4987388;28;20086;-62
2023/01/17 14:29:18;;;;;;;3.70;0.80;;;5.40;82.10;;;;;;4973045;28;20106;-63
2023/01/17 14:31:45;;;;;;;3.42;1.05;;;5.40;85.20;;;;;;4986323;28;20397;-63
2023/01/17 14:34:12;;;;;;;3.97;1.00;;;5.20;81.70;;;;;;4986067;28;20049;-63
2023/01/17 14:36:38;;;;;;;2.70;1.50;;;5.10;82.50;;;;;;4986704;28;20053;-62
2023/01/17 14:39:21;;;;;;;4.90;1.15;;;5.10;88.10;;;;;;4974005;28;20050;-63
2023/01/17 14:41:47;;;;;;;2.63;1.25;;;5.00;91.00;;;;;;4951680;28;20042;-63
2023/01/17 14:44:13;;;;;;;1.90;1.00;;;5.00;93.30;;;;;;4986036;28;20045;-63
2023/01/17 14:46:46;;;;;;;8.07;0.90;;;5.10;94.30;;;;;;4984875;28;20046;-63